sensor_id;sensor_type;location;lat;lon;timestamp;P1;durP1;ratioP1;P2;durP2;ratioP2
53646;SDS011;39550;52.230;5.194;2023-03-24T00:01:14;9.00;;;3.85;;
53646;SDS011;39550;52.230;5.194;2023-03-24T00:03:40;7.82;;;4.22;;
53646;SDS011;39550;52.230;5.194;2023-03-24T00:06:05;7.25;;;4.32;;
53646;SDS011;39550;52.230;5.194;2023-03-24T00:08:34;5.95;;;3.85;;
53646;SDS011;39550;52.230;5.194;2023-03-24T00:11:01;8.80;;;4.28;;
53646;SDS011;39550;52.230;5.194;2023-03-24T00:13:28;8.98;;;4.50;;
53646;SDS011;39550;52.230;5.194;2023-03-24T00:15:56;7.65;;;4.03;;
53646;SDS011;39550;52.230;5.194;2023-03-24T00:18:21;8.02;;;4.38;;
53646;SDS011;39550;52.230;5.194;2023-03-24T00:20:50;8.05;;;4.10;;
53646;SDS011;39550;52.230;5.194;2023-03-24T00:23:27;7.47;;;4.35;;
53646;SDS011;39550;52.230;5.194;2023-03-24T00:28:26;7.20;;;4.18;;
53646;SDS011;39550;52.230;5.194;2023-03-24T00:30:53;8.95;;;4.20;;
53646;SDS011;39550;52.230;5.194;2023-03-24T00:33:18;6.80;;;3.88;;
53646;SDS011;39550;52.230;5.194;2023-03-24T00:35:44;7.97;;;4.10;;
53646;SDS011;39550;52.230;5.194;2023-03-24T00:38:09;7.43;;;3.97;;
53646;SDS011;39550;52.230;5.194;2023-03-24T00:40:34;6.30;;;3.70;;
53646;SDS011;39550;52.230;5.194;2023-03-24T00:43:00;7.13;;;4.20;;
53646;SDS011;39550;52.230;5.194;2023-03-24T00:45:25;7.80;;;3.88;;
53646;SDS011;39550;52.230;5.194;2023-03-24T00:47:53;6.50;;;4.22;;
53646;SDS011;39550;52.230;5.194;2023-03-24T00:50:21;7.82;;;4.07;;
53646;SDS011;39550;52.230;5.194;2023-03-24T00:52:50;8.98;;;4.45;;
53646;SDS011;39550;52.230;5.194;2023-03-24T00:55:16;7.20;;;3.70;;
53646;SDS011;39550;52.230;5.194;2023-03-24T00:57:43;8.07;;;4.05;;
53646;SDS011;39550;52.230;5.194;2023-03-24T01:00:17;7.57;;;3.90;;
53646;SDS011;39550;52.230;5.194;2023-03-24T01:02:46;6.80;;;3.22;;
53646;SDS011;39550;52.230;5.194;2023-03-24T01:05:12;6.85;;;4.20;;
53646;SDS011;39550;52.230;5.194;2023-03-24T01:07:38;6.15;;;3.85;;
53646;SDS011;39550;52.230;5.194;2023-03-24T01:10:15;6.03;;;3.72;;
53646;SDS011;39550;52.230;5.194;2023-03-24T01:12:40;6.68;;;3.80;;
53646;SDS011;39550;52.230;5.194;2023-03-24T01:15:10;6.35;;;3.80;;
53646;SDS011;39550;52.230;5.194;2023-03-24T01:17:38;7.10;;;3.83;;
53646;SDS011;39550;52.230;5.194;2023-03-24T01:20:04;6.78;;;3.67;;
53646;SDS011;39550;52.230;5.194;2023-03-24T01:22:35;8.50;;;4.20;;
53646;SDS011;39550;52.230;5.194;2023-03-24T01:25:10;7.13;;;4.30;;
53646;SDS011;39550;52.230;5.194;2023-03-24T01:27:42;7.38;;;3.40;;
53646;SDS011;39550;52.230;5.194;2023-03-24T01:30:10;5.47;;;3.30;;
53646;SDS011;39550;52.230;5.194;2023-03-24T01:32:37;7.45;;;4.20;;
53646;SDS011;39550;52.230;5.194;2023-03-24T01:35:03;6.43;;;3.65;;
53646;SDS011;39550;52.230;5.194;2023-03-24T01:37:28;6.20;;;3.75;;
53646;SDS011;39550;52.230;5.194;2023-03-24T01:39:54;6.07;;;3.53;;
53646;SDS011;39550;52.230;5.194;2023-03-24T01:42:20;6.10;;;4.13;;
53646;SDS011;39550;52.230;5.194;2023-03-24T01:44:48;6.80;;;3.83;;
53646;SDS011;39550;52.230;5.194;2023-03-24T01:47:15;6.75;;;3.70;;
53646;SDS011;39550;52.230;5.194;2023-03-24T01:49:46;6.45;;;3.97;;
53646;SDS011;39550;52.230;5.194;2023-03-24T01:52:24;6.93;;;4.03;;
53646;SDS011;39550;52.230;5.194;2023-03-24T01:54:56;6.22;;;4.05;;
53646;SDS011;39550;52.230;5.194;2023-03-24T01:57:41;6.45;;;3.67;;
53646;SDS011;39550;52.230;5.194;2023-03-24T02:00:10;5.75;;;3.85;;
53646;SDS011;39550;52.230;5.194;2023-03-24T02:02:39;5.23;;;3.70;;
53646;SDS011;39550;52.230;5.194;2023-03-24T02:05:07;6.28;;;3.80;;
53646;SDS011;39550;52.230;5.194;2023-03-24T02:10:37;7.57;;;3.85;;
53646;SDS011;39550;52.230;5.194;2023-03-24T02:13:03;6.88;;;3.80;;
53646;SDS011;39550;52.230;5.194;2023-03-24T02:15:30;6.35;;;3.72;;
53646;SDS011;39550;52.230;5.194;2023-03-24T02:18:00;7.25;;;4.20;;
53646;SDS011;39550;52.230;5.194;2023-03-24T02:23:42;6.53;;;3.80;;
53646;SDS011;39550;52.230;5.194;2023-03-24T02:29:01;8.23;;;3.55;;
53646;SDS011;39550;52.230;5.194;2023-03-24T02:50:55;5.20;;;3.35;;
53646;SDS011;39550;52.230;5.194;2023-03-24T02:53:53;5.78;;;3.83;;
53646;SDS011;39550;52.230;5.194;2023-03-24T02:56:21;5.22;;;3.70;;
53646;SDS011;39550;52.230;5.194;2023-03-24T02:59:06;6.78;;;3.42;;
53646;SDS011;39550;52.230;5.194;2023-03-24T03:01:50;5.68;;;3.38;;
53646;SDS011;39550;52.230;5.194;2023-03-24T03:04:27;7.45;;;3.35;;
53646;SDS011;39550;52.230;5.194;2023-03-24T03:07:02;6.97;;;3.50;;
53646;SDS011;39550;52.230;5.194;2023-03-24T03:09:35;6.07;;;3.20;;
53646;SDS011;39550;52.230;5.194;2023-03-24T03:12:02;6.15;;;3.35;;
53646;SDS011;39550;52.230;5.194;2023-03-24T03:14:31;6.38;;;3.17;;
53646;SDS011;39550;52.230;5.194;2023-03-24T03:17:17;6.55;;;3.60;;
53646;SDS011;39550;52.230;5.194;2023-03-24T03:19:55;6.07;;;2.90;;
53646;SDS011;39550;52.230;5.194;2023-03-24T03:22:33;7.03;;;3.25;;
53646;SDS011;39550;52.230;5.194;2023-03-24T03:25:07;5.80;;;3.20;;
53646;SDS011;39550;52.230;5.194;2023-03-24T03:27:34;7.38;;;3.08;;
53646;SDS011;39550;52.230;5.194;2023-03-24T03:30:07;7.05;;;2.80;;
53646;SDS011;39550;52.230;5.194;2023-03-24T03:32:41;7.38;;;3.10;;
53646;SDS011;39550;52.230;5.194;2023-03-24T03:35:13;6.50;;;3.13;;
53646;SDS011;39550;52.230;5.194;2023-03-24T03:40:37;6.03;;;2.80;;
53646;SDS011;39550;52.230;5.194;2023-03-24T03:43:23;9.40;;;2.80;;
53646;SDS011;39550;52.230;5.194;2023-03-24T03:45:50;6.10;;;2.92;;
53646;SDS011;39550;52.230;5.194;2023-03-24T03:48:16;5.57;;;3.20;;
53646;SDS011;39550;52.230;5.194;2023-03-24T03:50:43;6.97;;;2.95;;
53646;SDS011;39550;52.230;5.194;2023-03-24T03:53:10;5.68;;;3.08;;
53646;SDS011;39550;52.230;5.194;2023-03-24T03:55:39;5.97;;;2.63;;
53646;SDS011;39550;52.230;5.194;2023-03-24T03:58:05;6.47;;;3.05;;
53646;SDS011;39550;52.230;5.194;2023-03-24T04:00:31;8.20;;;3.28;;
53646;SDS011;39550;52.230;5.194;2023-03-24T04:03:12;5.10;;;2.67;;
53646;SDS011;39550;52.230;5.194;2023-03-24T04:14:04;4.72;;;2.67;;
53646;SDS011;39550;52.230;5.194;2023-03-24T04:21:58;9.38;;;2.88;;
53646;SDS011;39550;52.230;5.194;2023-03-24T04:24:36;7.50;;;3.00;;
53646;SDS011;39550;52.230;5.194;2023-03-24T04:27:09;8.18;;;2.97;;
53646;SDS011;39550;52.230;5.194;2023-03-24T04:29:50;5.68;;;2.88;;
53646;SDS011;39550;52.230;5.194;2023-03-24T04:32:30;5.85;;;2.85;;
53646;SDS011;39550;52.230;5.194;2023-03-24T04:35:09;9.55;;;3.03;;
53646;SDS011;39550;52.230;5.194;2023-03-24T04:37:44;5.68;;;2.88;;
53646;SDS011;39550;52.230;5.194;2023-03-24T04:40:11;6.82;;;2.88;;
53646;SDS011;39550;52.230;5.194;2023-03-24T04:42:46;9.48;;;3.08;;
53646;SDS011;39550;52.230;5.194;2023-03-24T04:45:16;6.63;;;3.28;;
53646;SDS011;39550;52.230;5.194;2023-03-24T04:47:45;8.88;;;3.10;;
53646;SDS011;39550;52.230;5.194;2023-03-24T04:50:13;7.10;;;3.13;;
53646;SDS011;39550;52.230;5.194;2023-03-24T04:52:54;7.78;;;3.08;;
53646;SDS011;39550;52.230;5.194;2023-03-24T04:57:45;6.20;;;3.03;;
53646;SDS011;39550;52.230;5.194;2023-03-24T05:00:10;6.82;;;3.00;;
53646;SDS011;39550;52.230;5.194;2023-03-24T05:02:36;7.70;;;3.03;;
53646;SDS011;39550;52.230;5.194;2023-03-24T05:05:02;7.15;;;3.03;;
53646;SDS011;39550;52.230;5.194;2023-03-24T05:07:27;10.55;;;3.88;;
53646;SDS011;39550;52.230;5.194;2023-03-24T05:20:12;8.32;;;3.20;;
53646;SDS011;39550;52.230;5.194;2023-03-24T05:22:39;8.65;;;3.00;;
53646;SDS011;39550;52.230;5.194;2023-03-24T05:25:04;7.65;;;3.20;;
53646;SDS011;39550;52.230;5.194;2023-03-24T05:27:30;7.78;;;3.45;;
53646;SDS011;39550;52.230;5.194;2023-03-24T05:29:56;10.88;;;3.75;;
53646;SDS011;39550;52.230;5.194;2023-03-24T05:32:21;8.18;;;3.08;;
53646;SDS011;39550;52.230;5.194;2023-03-24T05:34:47;8.55;;;3.30;;
53646;SDS011;39550;52.230;5.194;2023-03-24T05:37:12;10.20;;;3.72;;
53646;SDS011;39550;52.230;5.194;2023-03-24T05:39:40;12.45;;;4.57;;
53646;SDS011;39550;52.230;5.194;2023-03-24T05:42:06;10.93;;;3.88;;
53646;SDS011;39550;52.230;5.194;2023-03-24T05:44:32;9.75;;;3.53;;
53646;SDS011;39550;52.230;5.194;2023-03-24T05:46:57;9.13;;;3.72;;
53646;SDS011;39550;52.230;5.194;2023-03-24T05:49:22;9.70;;;3.53;;
53646;SDS011;39550;52.230;5.194;2023-03-24T05:51:48;10.90;;;4.18;;
53646;SDS011;39550;52.230;5.194;2023-03-24T05:54:13;10.68;;;3.67;;
53646;SDS011;39550;52.230;5.194;2023-03-24T05:56:38;13.80;;;4.32;;
53646;SDS011;39550;52.230;5.194;2023-03-24T05:59:04;10.88;;;4.05;;
53646;SDS011;39550;52.230;5.194;2023-03-24T06:01:29;11.27;;;3.95;;
53646;SDS011;39550;52.230;5.194;2023-03-24T06:03:54;8.70;;;3.88;;
53646;SDS011;39550;52.230;5.194;2023-03-24T06:06:20;14.88;;;4.50;;
53646;SDS011;39550;52.230;5.194;2023-03-24T06:08:46;9.23;;;3.88;;
53646;SDS011;39550;52.230;5.194;2023-03-24T06:11:12;11.52;;;3.85;;
53646;SDS011;39550;52.230;5.194;2023-03-24T06:13:38;13.68;;;4.35;;
53646;SDS011;39550;52.230;5.194;2023-03-24T06:16:03;9.85;;;3.97;;
53646;SDS011;39550;52.230;5.194;2023-03-24T06:18:28;11.80;;;4.85;;
53646;SDS011;39550;52.230;5.194;2023-03-24T06:20:58;10.55;;;4.15;;
53646;SDS011;39550;52.230;5.194;2023-03-24T06:23:24;10.00;;;4.05;;
53646;SDS011;39550;52.230;5.194;2023-03-24T06:25:52;10.32;;;3.90;;
53646;SDS011;39550;52.230;5.194;2023-03-24T06:28:22;13.27;;;4.65;;
53646;SDS011;39550;52.230;5.194;2023-03-24T06:30:50;13.45;;;4.32;;
53646;SDS011;39550;52.230;5.194;2023-03-24T06:33:15;11.10;;;4.28;;
53646;SDS011;39550;52.230;5.194;2023-03-24T06:35:41;10.07;;;4.20;;
53646;SDS011;39550;52.230;5.194;2023-03-24T06:38:06;10.98;;;4.43;;
53646;SDS011;39550;52.230;5.194;2023-03-24T06:40:32;11.63;;;4.60;;
53646;SDS011;39550;52.230;5.194;2023-03-24T06:42:58;9.75;;;3.85;;
53646;SDS011;39550;52.230;5.194;2023-03-24T06:45:24;12.27;;;5.43;;
53646;SDS011;39550;52.230;5.194;2023-03-24T06:47:52;11.48;;;4.05;;
53646;SDS011;39550;52.230;5.194;2023-03-24T06:50:21;13.35;;;4.38;;
53646;SDS011;39550;52.230;5.194;2023-03-24T06:52:50;9.65;;;4.55;;
53646;SDS011;39550;52.230;5.194;2023-03-24T06:55:16;10.82;;;4.15;;
53646;SDS011;39550;52.230;5.194;2023-03-24T06:57:41;13.40;;;5.15;;
53646;SDS011;39550;52.230;5.194;2023-03-24T07:00:07;11.50;;;4.45;;
53646;SDS011;39550;52.230;5.194;2023-03-24T07:02:33;12.60;;;4.45;;
53646;SDS011;39550;52.230;5.194;2023-03-24T07:05:00;10.00;;;4.70;;
53646;SDS011;39550;52.230;5.194;2023-03-24T07:07:30;11.27;;;4.50;;
53646;SDS011;39550;52.230;5.194;2023-03-24T07:09:56;13.20;;;4.65;;
53646;SDS011;39550;52.230;5.194;2023-03-24T07:12:22;8.93;;;4.15;;
53646;SDS011;39550;52.230;5.194;2023-03-24T07:14:49;13.38;;;5.35;;
53646;SDS011;39550;52.230;5.194;2023-03-24T07:17:25;10.95;;;4.20;;
53646;SDS011;39550;52.230;5.194;2023-03-24T07:19:50;14.55;;;4.90;;
53646;SDS011;39550;52.230;5.194;2023-03-24T07:22:15;15.57;;;4.47;;
53646;SDS011;39550;52.230;5.194;2023-03-24T07:24:41;13.02;;;4.68;;
53646;SDS011;39550;52.230;5.194;2023-03-24T07:27:06;10.90;;;4.93;;
53646;SDS011;39550;52.230;5.194;2023-03-24T07:29:31;14.52;;;5.28;;
53646;SDS011;39550;52.230;5.194;2023-03-24T07:31:57;13.32;;;4.32;;
53646;SDS011;39550;52.230;5.194;2023-03-24T07:34:23;14.27;;;4.60;;
53646;SDS011;39550;52.230;5.194;2023-03-24T07:36:49;14.77;;;4.72;;
53646;SDS011;39550;52.230;5.194;2023-03-24T07:39:15;14.00;;;5.32;;
53646;SDS011;39550;52.230;5.194;2023-03-24T07:41:41;11.40;;;4.55;;
53646;SDS011;39550;52.230;5.194;2023-03-24T07:44:07;11.45;;;4.18;;
53646;SDS011;39550;52.230;5.194;2023-03-24T07:46:33;14.57;;;4.38;;
53646;SDS011;39550;52.230;5.194;2023-03-24T07:48:59;16.08;;;5.20;;
53646;SDS011;39550;52.230;5.194;2023-03-24T07:51:26;15.07;;;4.93;;
53646;SDS011;39550;52.230;5.194;2023-03-24T07:53:51;10.20;;;5.05;;
53646;SDS011;39550;52.230;5.194;2023-03-24T07:56:16;16.48;;;4.90;;
53646;SDS011;39550;52.230;5.194;2023-03-24T07:58:42;13.43;;;4.95;;
53646;SDS011;39550;52.230;5.194;2023-03-24T08:01:07;15.27;;;4.28;;
53646;SDS011;39550;52.230;5.194;2023-03-24T08:03:37;15.80;;;4.85;;
53646;SDS011;39550;52.230;5.194;2023-03-24T08:06:04;12.50;;;4.35;;
53646;SDS011;39550;52.230;5.194;2023-03-24T08:08:31;15.90;;;4.40;;
53646;SDS011;39550;52.230;5.194;2023-03-24T08:10:57;11.60;;;4.10;;
53646;SDS011;39550;52.230;5.194;2023-03-24T08:13:23;13.48;;;4.72;;
53646;SDS011;39550;52.230;5.194;2023-03-24T08:15:49;10.98;;;4.40;;
53646;SDS011;39550;52.230;5.194;2023-03-24T08:18:15;15.48;;;4.72;;
53646;SDS011;39550;52.230;5.194;2023-03-24T08:20:40;15.75;;;4.75;;
53646;SDS011;39550;52.230;5.194;2023-03-24T08:23:06;12.98;;;4.85;;
53646;SDS011;39550;52.230;5.194;2023-03-24T08:25:32;10.85;;;4.80;;
53646;SDS011;39550;52.230;5.194;2023-03-24T08:27:59;12.50;;;4.28;;
53646;SDS011;39550;52.230;5.194;2023-03-24T08:30:24;10.68;;;4.45;;
53646;SDS011;39550;52.230;5.194;2023-03-24T08:32:51;10.93;;;4.63;;
53646;SDS011;39550;52.230;5.194;2023-03-24T08:35:20;12.45;;;4.88;;
53646;SDS011;39550;52.230;5.194;2023-03-24T08:37:47;12.45;;;4.35;;
53646;SDS011;39550;52.230;5.194;2023-03-24T08:40:14;12.23;;;4.55;;
53646;SDS011;39550;52.230;5.194;2023-03-24T08:42:43;14.23;;;4.50;;
53646;SDS011;39550;52.230;5.194;2023-03-24T08:45:12;17.10;;;5.03;;
53646;SDS011;39550;52.230;5.194;2023-03-24T08:47:38;12.25;;;4.85;;
53646;SDS011;39550;52.230;5.194;2023-03-24T08:50:04;9.18;;;3.85;;
53646;SDS011;39550;52.230;5.194;2023-03-24T08:52:31;11.25;;;4.18;;
53646;SDS011;39550;52.230;5.194;2023-03-24T08:54:57;12.35;;;4.60;;
53646;SDS011;39550;52.230;5.194;2023-03-24T08:57:23;12.20;;;4.18;;
53646;SDS011;39550;52.230;5.194;2023-03-24T08:59:48;11.00;;;3.63;;
53646;SDS011;39550;52.230;5.194;2023-03-24T09:02:14;9.13;;;4.53;;
53646;SDS011;39550;52.230;5.194;2023-03-24T09:04:39;8.55;;;3.95;;
53646;SDS011;39550;52.230;5.194;2023-03-24T09:07:06;11.23;;;3.90;;
53646;SDS011;39550;52.230;5.194;2023-03-24T09:09:33;11.52;;;4.57;;
53646;SDS011;39550;52.230;5.194;2023-03-24T09:11:58;10.80;;;4.20;;
53646;SDS011;39550;52.230;5.194;2023-03-24T09:14:24;12.60;;;5.43;;
53646;SDS011;39550;52.230;5.194;2023-03-24T09:16:50;11.75;;;4.22;;
53646;SDS011;39550;52.230;5.194;2023-03-24T09:19:16;14.88;;;4.53;;
53646;SDS011;39550;52.230;5.194;2023-03-24T09:21:43;14.40;;;4.95;;
53646;SDS011;39550;52.230;5.194;2023-03-24T09:24:10;13.27;;;5.28;;
53646;SDS011;39550;52.230;5.194;2023-03-24T09:26:35;13.05;;;4.50;;
53646;SDS011;39550;52.230;5.194;2023-03-24T09:29:00;9.18;;;4.32;;
53646;SDS011;39550;52.230;5.194;2023-03-24T09:31:26;12.25;;;4.63;;
53646;SDS011;39550;52.230;5.194;2023-03-24T09:33:52;14.55;;;4.53;;
53646;SDS011;39550;52.230;5.194;2023-03-24T09:36:17;11.75;;;4.70;;
53646;SDS011;39550;52.230;5.194;2023-03-24T09:38:42;9.77;;;4.38;;
53646;SDS011;39550;52.230;5.194;2023-03-24T09:41:18;13.85;;;4.47;;
53646;SDS011;39550;52.230;5.194;2023-03-24T09:43:50;12.35;;;4.70;;
53646;SDS011;39550;52.230;5.194;2023-03-24T09:46:38;14.60;;;4.53;;
53646;SDS011;39550;52.230;5.194;2023-03-24T09:49:15;12.65;;;4.43;;
53646;SDS011;39550;52.230;5.194;2023-03-24T09:51:47;9.23;;;4.43;;
53646;SDS011;39550;52.230;5.194;2023-03-24T09:57:35;13.68;;;4.30;;
53646;SDS011;39550;52.230;5.194;2023-03-24T10:00:19;10.18;;;4.82;;
53646;SDS011;39550;52.230;5.194;2023-03-24T10:02:58;9.93;;;4.57;;
53646;SDS011;39550;52.230;5.194;2023-03-24T10:05:32;11.73;;;4.72;;
53646;SDS011;39550;52.230;5.194;2023-03-24T10:22:11;14.05;;;4.78;;
53646;SDS011;39550;52.230;5.194;2023-03-24T10:24:45;10.07;;;4.32;;
53646;SDS011;39550;52.230;5.194;2023-03-24T10:27:35;9.48;;;5.00;;
53646;SDS011;39550;52.230;5.194;2023-03-24T10:30:16;13.40;;;4.57;;
53646;SDS011;39550;52.230;5.194;2023-03-24T10:32:47;11.20;;;4.17;;
53646;SDS011;39550;52.230;5.194;2023-03-24T10:35:14;11.50;;;4.20;;
53646;SDS011;39550;52.230;5.194;2023-03-24T10:37:43;12.10;;;4.68;;
53646;SDS011;39550;52.230;5.194;2023-03-24T10:40:13;8.88;;;4.20;;
53646;SDS011;39550;52.230;5.194;2023-03-24T10:42:41;7.00;;;4.00;;
53646;SDS011;39550;52.230;5.194;2023-03-24T10:45:13;10.32;;;4.60;;
53646;SDS011;39550;52.230;5.194;2023-03-24T10:47:42;11.23;;;4.28;;
53646;SDS011;39550;52.230;5.194;2023-03-24T10:50:08;11.63;;;4.85;;
53646;SDS011;39550;52.230;5.194;2023-03-24T10:52:38;10.27;;;4.15;;
53646;SDS011;39550;52.230;5.194;2023-03-24T10:55:05;13.23;;;4.60;;
53646;SDS011;39550;52.230;5.194;2023-03-24T10:57:31;14.93;;;4.68;;
53646;SDS011;39550;52.230;5.194;2023-03-24T10:59:59;11.25;;;3.88;;
53646;SDS011;39550;52.230;5.194;2023-03-24T11:02:37;9.07;;;4.00;;
53646;SDS011;39550;52.230;5.194;2023-03-24T11:05:17;10.57;;;4.32;;
53646;SDS011;39550;52.230;5.194;2023-03-24T11:07:47;10.27;;;3.97;;
53646;SDS011;39550;52.230;5.194;2023-03-24T11:10:18;14.32;;;4.13;;
53646;SDS011;39550;52.230;5.194;2023-03-24T11:17:44;11.18;;;4.13;;
53646;SDS011;39550;52.230;5.194;2023-03-24T11:20:15;12.77;;;4.43;;
53646;SDS011;39550;52.230;5.194;2023-03-24T11:23:00;9.48;;;4.30;;
53646;SDS011;39550;52.230;5.194;2023-03-24T11:25:52;11.35;;;4.00;;
53646;SDS011;39550;52.230;5.194;2023-03-24T11:28:27;10.38;;;3.70;;
53646;SDS011;39550;52.230;5.194;2023-03-24T11:30:54;13.68;;;5.18;;
53646;SDS011;39550;52.230;5.194;2023-03-24T11:33:25;11.05;;;4.18;;
53646;SDS011;39550;52.230;5.194;2023-03-24T11:35:52;9.10;;;4.15;;
53646;SDS011;39550;52.230;5.194;2023-03-24T11:38:19;7.30;;;3.70;;
53646;SDS011;39550;52.230;5.194;2023-03-24T11:41:00;11.45;;;3.88;;
53646;SDS011;39550;52.230;5.194;2023-03-24T11:43:29;14.43;;;4.82;;
53646;SDS011;39550;52.230;5.194;2023-03-24T11:46:09;10.43;;;3.60;;
53646;SDS011;39550;52.230;5.194;2023-03-24T11:48:51;9.23;;;3.80;;
53646;SDS011;39550;52.230;5.194;2023-03-24T11:51:38;11.13;;;4.07;;
53646;SDS011;39550;52.230;5.194;2023-03-24T11:54:11;8.60;;;4.13;;
53646;SDS011;39550;52.230;5.194;2023-03-24T11:56:39;10.00;;;4.03;;
53646;SDS011;39550;52.230;5.194;2023-03-24T12:04:58;10.23;;;4.05;;
53646;SDS011;39550;52.230;5.194;2023-03-24T12:07:50;11.15;;;4.13;;
53646;SDS011;39550;52.230;5.194;2023-03-24T12:13:11;8.50;;;4.40;;
53646;SDS011;39550;52.230;5.194;2023-03-24T12:16:00;11.23;;;4.22;;
53646;SDS011;39550;52.230;5.194;2023-03-24T12:23:59;9.23;;;3.83;;
53646;SDS011;39550;52.230;5.194;2023-03-24T12:26:29;8.20;;;3.35;;
53646;SDS011;39550;52.230;5.194;2023-03-24T12:28:56;9.05;;;3.33;;
53646;SDS011;39550;52.230;5.194;2023-03-24T12:39:33;8.98;;;3.38;;
53646;SDS011;39550;52.230;5.194;2023-03-24T12:42:12;10.23;;;3.95;;
53646;SDS011;39550;52.230;5.194;2023-03-24T12:48:10;10.60;;;3.35;;
53646;SDS011;39550;52.230;5.194;2023-03-24T12:53:03;9.52;;;3.45;;
53646;SDS011;39550;52.230;5.194;2023-03-24T12:55:33;9.27;;;3.38;;
53646;SDS011;39550;52.230;5.194;2023-03-24T13:06:24;7.13;;;2.72;;
53646;SDS011;39550;52.230;5.194;2023-03-24T13:09:01;8.60;;;3.25;;
53646;SDS011;39550;52.230;5.194;2023-03-24T13:11:45;7.00;;;3.30;;
53646;SDS011;39550;52.230;5.194;2023-03-24T13:14:19;6.65;;;2.92;;
53646;SDS011;39550;52.230;5.194;2023-03-24T13:16:49;7.70;;;2.80;;
53646;SDS011;39550;52.230;5.194;2023-03-24T13:19:17;11.80;;;3.05;;
53646;SDS011;39550;52.230;5.194;2023-03-24T13:21:47;8.65;;;3.53;;
53646;SDS011;39550;52.230;5.194;2023-03-24T13:24:14;9.82;;;3.80;;
53646;SDS011;39550;52.230;5.194;2023-03-24T13:26:46;7.35;;;2.90;;
53646;SDS011;39550;52.230;5.194;2023-03-24T13:35:06;8.10;;;3.15;;
53646;SDS011;39550;52.230;5.194;2023-03-24T13:37:39;8.48;;;2.92;;
53646;SDS011;39550;52.230;5.194;2023-03-24T13:40:17;8.48;;;3.15;;
53646;SDS011;39550;52.230;5.194;2023-03-24T13:42:51;9.52;;;3.17;;
53646;SDS011;39550;52.230;5.194;2023-03-24T13:45:29;8.73;;;3.08;;
53646;SDS011;39550;52.230;5.194;2023-03-24T13:48:04;11.48;;;3.75;;
53646;SDS011;39550;52.230;5.194;2023-03-24T13:50:48;10.77;;;3.47;;
53646;SDS011;39550;52.230;5.194;2023-03-24T13:53:15;7.45;;;2.80;;
53646;SDS011;39550;52.230;5.194;2023-03-24T13:55:50;7.82;;;2.80;;
53646;SDS011;39550;52.230;5.194;2023-03-24T14:01:31;10.15;;;3.65;;
53646;SDS011;39550;52.230;5.194;2023-03-24T14:03:39;8.30;;;2.80;;
53646;SDS011;39550;52.230;5.194;2023-03-24T14:06:42;9.52;;;3.53;;
53646;SDS011;39550;52.230;5.194;2023-03-24T14:09:28;8.25;;;2.80;;
53646;SDS011;39550;52.230;5.194;2023-03-24T14:14:24;8.10;;;2.95;;
53646;SDS011;39550;52.230;5.194;2023-03-24T14:16:52;12.50;;;3.60;;
53646;SDS011;39550;52.230;5.194;2023-03-24T14:19:35;8.43;;;2.90;;
53646;SDS011;39550;52.230;5.194;2023-03-24T14:22:20;9.10;;;2.83;;
53646;SDS011;39550;52.230;5.194;2023-03-24T14:25:22;12.38;;;3.20;;
53646;SDS011;39550;52.230;5.194;2023-03-24T14:27:45;8.43;;;3.13;;
53646;SDS011;39550;52.230;5.194;2023-03-24T14:30:14;9.95;;;2.80;;
53646;SDS011;39550;52.230;5.194;2023-03-24T14:32:51;6.68;;;2.67;;
53646;SDS011;39550;52.230;5.194;2023-03-24T14:35:23;8.32;;;2.78;;
53646;SDS011;39550;52.230;5.194;2023-03-24T14:37:53;6.45;;;2.63;;
53646;SDS011;39550;52.230;5.194;2023-03-24T14:40:23;10.52;;;3.47;;
53646;SDS011;39550;52.230;5.194;2023-03-24T14:42:54;7.50;;;2.50;;
53646;SDS011;39550;52.230;5.194;2023-03-24T14:45:40;9.68;;;3.40;;
53646;SDS011;39550;52.230;5.194;2023-03-24T14:50:52;7.68;;;2.83;;
53646;SDS011;39550;52.230;5.194;2023-03-24T14:53:19;6.10;;;2.80;;
53646;SDS011;39550;52.230;5.194;2023-03-24T14:55:46;6.13;;;2.70;;
53646;SDS011;39550;52.230;5.194;2023-03-24T14:58:20;8.00;;;3.10;;
53646;SDS011;39550;52.230;5.194;2023-03-24T15:00:51;4.80;;;2.60;;
53646;SDS011;39550;52.230;5.194;2023-03-24T15:06:11;8.95;;;3.42;;
53646;SDS011;39550;52.230;5.194;2023-03-24T15:08:40;7.40;;;2.53;;
53646;SDS011;39550;52.230;5.194;2023-03-24T15:11:08;6.22;;;3.13;;
53646;SDS011;39550;52.230;5.194;2023-03-24T15:13:36;6.88;;;2.80;;
53646;SDS011;39550;52.230;5.194;2023-03-24T15:16:06;6.47;;;2.65;;
53646;SDS011;39550;52.230;5.194;2023-03-24T15:19:07;6.82;;;3.42;;
53646;SDS011;39550;52.230;5.194;2023-03-24T15:21:40;6.80;;;2.75;;
53646;SDS011;39550;52.230;5.194;2023-03-24T15:26:45;8.48;;;3.72;;
53646;SDS011;39550;52.230;5.194;2023-03-24T15:29:11;14.82;;;2.83;;
53646;SDS011;39550;52.230;5.194;2023-03-24T15:31:36;7.30;;;2.90;;
53646;SDS011;39550;52.230;5.194;2023-03-24T15:34:03;8.45;;;3.28;;
53646;SDS011;39550;52.230;5.194;2023-03-24T15:36:59;8.57;;;2.55;;
53646;SDS011;39550;52.230;5.194;2023-03-24T15:39:28;6.47;;;2.58;;
53646;SDS011;39550;52.230;5.194;2023-03-24T15:44:26;9.23;;;2.80;;
53646;SDS011;39550;52.230;5.194;2023-03-24T15:46:58;7.03;;;2.92;;
53646;SDS011;39550;52.230;5.194;2023-03-24T15:49:33;10.52;;;3.05;;
53646;SDS011;39550;52.230;5.194;2023-03-24T15:52:00;8.85;;;3.13;;
53646;SDS011;39550;52.230;5.194;2023-03-24T15:54:38;7.05;;;2.95;;
53646;SDS011;39550;52.230;5.194;2023-03-24T15:57:12;9.63;;;2.95;;
53646;SDS011;39550;52.230;5.194;2023-03-24T15:59:42;7.93;;;3.53;;
53646;SDS011;39550;52.230;5.194;2023-03-24T16:02:34;7.45;;;2.63;;
53646;SDS011;39550;52.230;5.194;2023-03-24T16:05:14;7.05;;;2.85;;
53646;SDS011;39550;52.230;5.194;2023-03-24T16:07:43;6.45;;;2.65;;
53646;SDS011;39550;52.230;5.194;2023-03-24T16:13:13;6.65;;;2.83;;
53646;SDS011;39550;52.230;5.194;2023-03-24T16:15:43;7.82;;;2.80;;
53646;SDS011;39550;52.230;5.194;2023-03-24T16:18:33;5.70;;;2.60;;
53646;SDS011;39550;52.230;5.194;2023-03-24T16:21:00;7.45;;;2.85;;
53646;SDS011;39550;52.230;5.194;2023-03-24T16:23:28;9.65;;;3.33;;
53646;SDS011;39550;52.230;5.194;2023-03-24T16:25:54;9.82;;;3.00;;
53646;SDS011;39550;52.230;5.194;2023-03-24T16:28:20;8.85;;;3.00;;
53646;SDS011;39550;52.230;5.194;2023-03-24T16:30:48;6.63;;;3.13;;
53646;SDS011;39550;52.230;5.194;2023-03-24T16:33:21;10.57;;;3.45;;
53646;SDS011;39550;52.230;5.194;2023-03-24T16:35:46;8.95;;;2.90;;
53646;SDS011;39550;52.230;5.194;2023-03-24T16:38:12;7.70;;;2.85;;
53646;SDS011;39550;52.230;5.194;2023-03-24T16:40:39;9.88;;;3.38;;
53646;SDS011;39550;52.230;5.194;2023-03-24T16:45:33;8.57;;;3.00;;
53646;SDS011;39550;52.230;5.194;2023-03-24T16:47:59;8.52;;;3.58;;
53646;SDS011;39550;52.230;5.194;2023-03-24T16:50:31;9.02;;;3.50;;
53646;SDS011;39550;52.230;5.194;2023-03-24T16:52:59;7.38;;;3.78;;
53646;SDS011;39550;52.230;5.194;2023-03-24T16:55:25;9.60;;;3.67;;
53646;SDS011;39550;52.230;5.194;2023-03-24T16:57:50;9.05;;;3.45;;
53646;SDS011;39550;52.230;5.194;2023-03-24T17:00:16;8.45;;;3.45;;
53646;SDS011;39550;52.230;5.194;2023-03-24T17:02:42;8.80;;;3.03;;
53646;SDS011;39550;52.230;5.194;2023-03-24T17:07:49;11.85;;;4.00;;
53646;SDS011;39550;52.230;5.194;2023-03-24T17:10:15;9.23;;;3.40;;
53646;SDS011;39550;52.230;5.194;2023-03-24T17:12:41;9.70;;;3.33;;
53646;SDS011;39550;52.230;5.194;2023-03-24T17:15:15;7.85;;;3.53;;
53646;SDS011;39550;52.230;5.194;2023-03-24T17:17:58;10.02;;;3.60;;
53646;SDS011;39550;52.230;5.194;2023-03-24T17:20:24;13.68;;;3.63;;
53646;SDS011;39550;52.230;5.194;2023-03-24T17:22:52;10.20;;;3.80;;
53646;SDS011;39550;52.230;5.194;2023-03-24T17:25:19;11.25;;;4.15;;
53646;SDS011;39550;52.230;5.194;2023-03-24T17:27:46;8.15;;;3.55;;
53646;SDS011;39550;52.230;5.194;2023-03-24T17:30:19;7.60;;;3.30;;